createdAt,value
2019-03-29T00:01:41.331Z,15.77
2019-03-29T00:04:27.025Z,15.90
2019-03-29T00:07:11.969Z,14.63
2019-03-29T00:09:56.335Z,14.57
2019-03-29T00:12:41.062Z,13.23
2019-03-29T00:15:26.173Z,13.50
2019-03-29T00:18:10.795Z,13.57
2019-03-29T00:20:55.630Z,13.47
2019-03-29T00:23:40.777Z,16.27
2019-03-29T00:26:25.705Z,13.23
2019-03-29T00:29:10.765Z,13.30
2019-03-29T00:31:55.684Z,13.03
2019-03-29T00:34:40.218Z,13.20
2019-03-29T00:37:25.086Z,12.50
2019-03-29T00:40:09.737Z,12.80
2019-03-29T00:42:54.741Z,15.03
2019-03-29T00:45:39.346Z,12.40
2019-03-29T00:48:24.050Z,13.17
2019-03-29T00:51:08.541Z,16.33
2019-03-29T00:53:53.005Z,14.33
2019-03-29T00:56:38.960Z,11.87
2019-03-29T00:59:23.732Z,13.13
2019-03-29T01:02:08.503Z,12.90
2019-03-29T01:04:53.356Z,11.57
2019-03-29T01:07:38.092Z,13.07
2019-03-29T01:10:23.293Z,11.90
2019-03-29T01:13:08.598Z,11.43
2019-03-29T01:15:53.490Z,11.33
2019-03-29T01:18:38.501Z,10.60
2019-03-29T01:21:23.421Z,9.80
2019-03-29T01:24:07.942Z,11.13
2019-03-29T01:26:53.118Z,11.83
2019-03-29T01:29:38.001Z,13.73
2019-03-29T01:32:22.815Z,11.10
2019-03-29T01:35:09.078Z,11.50
2019-03-29T01:37:54.226Z,12.47
2019-03-29T01:40:39.086Z,9.53
2019-03-29T01:43:23.745Z,9.27
2019-03-29T01:46:08.291Z,12.00
2019-03-29T01:48:52.727Z,11.47
2019-03-29T01:51:37.480Z,11.57
2019-03-29T01:54:22.261Z,10.83
2019-03-29T01:57:07.042Z,11.93
2019-03-29T01:59:52.603Z,11.33
2019-03-29T02:02:37.597Z,11.97
2019-03-29T02:05:22.186Z,12.00
2019-03-29T02:08:06.985Z,11.40
2019-03-29T02:10:51.895Z,12.20
2019-03-29T02:13:36.342Z,14.67
2019-03-29T02:16:21.026Z,16.00
2019-03-29T02:19:06.000Z,11.67
2019-03-29T02:21:50.807Z,11.77
2019-03-29T02:24:35.195Z,11.37
2019-03-29T02:27:20.055Z,13.90
2019-03-29T02:30:06.801Z,13.47
2019-03-29T02:32:52.660Z,13.13
2019-03-29T02:35:38.996Z,14.93
2019-03-29T02:38:24.110Z,13.30
2019-03-29T02:41:09.096Z,14.33
2019-03-29T02:43:53.730Z,13.53
2019-03-29T02:46:38.272Z,13.63
2019-03-29T02:49:22.857Z,16.20
2019-03-29T02:52:07.379Z,13.33
2019-03-29T02:54:51.888Z,14.80
2019-03-29T02:57:36.473Z,16.53
2019-03-29T03:00:21.152Z,12.90
2019-03-29T03:03:05.675Z,15.10
2019-03-29T03:05:50.979Z,14.90
2019-03-29T03:08:35.908Z,14.83
2019-03-29T03:11:20.640Z,15.73
2019-03-29T03:14:05.472Z,13.57
2019-03-29T03:16:50.498Z,16.20
2019-03-29T03:19:35.263Z,13.70
2019-03-29T03:22:20.486Z,15.77
2019-03-29T03:25:05.984Z,15.70
2019-03-29T03:27:50.841Z,13.07
2019-03-29T03:30:36.653Z,13.43
2019-03-29T03:33:21.503Z,13.17
2019-03-29T03:36:06.221Z,15.07
2019-03-29T03:38:51.341Z,13.73
2019-03-29T03:41:36.064Z,14.03
2019-03-29T03:44:20.984Z,15.50
2019-03-29T03:47:05.505Z,18.27
2019-03-29T03:49:50.212Z,15.07
2019-03-29T03:52:35.563Z,17.33
2019-03-29T03:55:20.400Z,15.37
2019-03-29T03:58:05.275Z,15.13
2019-03-29T04:00:52.523Z,14.43
2019-03-29T04:03:37.317Z,16.03
2019-03-29T04:06:22.146Z,14.63
2019-03-29T04:09:06.786Z,16.30
2019-03-29T04:11:53.144Z,17.70
2019-03-29T04:14:37.985Z,15.53
2019-03-29T04:17:22.821Z,14.90
2019-03-29T04:20:07.585Z,18.83
2019-03-29T04:22:52.126Z,18.60
2019-03-29T04:25:36.630Z,16.90
2019-03-29T04:28:21.575Z,17.63
2019-03-29T04:31:06.251Z,15.80
2019-03-29T04:33:51.143Z,16.80
2019-03-29T04:36:35.763Z,17.43
2019-03-29T04:39:20.967Z,16.27
2019-03-29T04:42:05.395Z,17.70
2019-03-29T04:44:50.296Z,15.83
2019-03-29T04:47:35.307Z,15.03
2019-03-29T04:50:19.899Z,17.10
2019-03-29T04:53:04.963Z,16.67
2019-03-29T04:55:49.582Z,16.20
2019-03-29T04:58:34.286Z,19.90
2019-03-29T05:01:21.466Z,17.53
2019-03-29T05:04:06.430Z,15.93
2019-03-29T05:06:50.779Z,17.30
2019-03-29T05:09:35.331Z,18.03
2019-03-29T05:12:20.081Z,15.57
2019-03-29T05:15:05.607Z,17.30
2019-03-29T05:17:50.270Z,16.23
2019-03-29T05:20:34.886Z,16.93
2019-03-29T05:23:19.330Z,16.40
2019-03-29T05:26:04.022Z,20.93
2019-03-29T05:28:48.545Z,18.83
2019-03-29T05:31:33.061Z,23.33
2019-03-29T05:34:17.726Z,19.33
2019-03-29T05:37:02.467Z,20.93
2019-03-29T05:39:47.433Z,18.20
2019-03-29T05:42:31.885Z,15.70
2019-03-29T05:45:16.434Z,19.33
2019-03-29T05:48:01.160Z,19.47
2019-03-29T05:50:45.631Z,19.10
2019-03-29T05:53:30.166Z,23.00
2019-03-29T05:56:14.677Z,21.83
2019-03-29T05:58:59.624Z,18.53
2019-03-29T06:01:44.421Z,18.93
2019-03-29T06:04:29.088Z,32.87
2019-03-29T06:07:13.606Z,21.10
2019-03-29T06:09:58.270Z,26.40
2019-03-29T06:12:43.014Z,18.60
2019-03-29T06:15:27.930Z,25.10
2019-03-29T06:18:12.800Z,25.13
2019-03-29T06:20:57.689Z,22.70
2019-03-29T06:23:42.281Z,26.20
2019-03-29T06:26:26.835Z,20.93
2019-03-29T06:29:11.716Z,24.40
2019-03-29T06:31:56.567Z,17.23
2019-03-29T06:34:41.300Z,16.43
2019-03-29T06:37:27.155Z,19.37
2019-03-29T06:40:21.696Z,16.47
2019-03-29T06:43:06.721Z,17.27
2019-03-29T06:45:51.800Z,17.20
2019-03-29T06:48:36.706Z,20.07
2019-03-29T06:51:21.439Z,16.03
2019-03-29T06:54:06.710Z,17.07
2019-03-29T06:56:51.669Z,13.17
2019-03-29T06:59:36.386Z,16.10
2019-03-29T07:02:20.924Z,17.80
2019-03-29T07:05:05.881Z,13.50
2019-03-29T07:07:50.781Z,14.13
2019-03-29T07:10:36.235Z,14.70
2019-03-29T07:13:21.185Z,14.07
2019-03-29T07:16:06.134Z,13.27
2019-03-29T07:18:50.603Z,13.87
2019-03-29T07:21:35.369Z,13.80
2019-03-29T07:24:19.880Z,12.70
2019-03-29T07:27:04.642Z,15.83
2019-03-29T07:29:49.625Z,15.00
2019-03-29T07:32:34.319Z,15.03
2019-03-29T07:35:19.251Z,19.80
2019-03-29T07:38:04.330Z,20.30
2019-03-29T07:40:49.565Z,14.00
2019-03-29T07:43:34.460Z,16.50
2019-03-29T07:46:19.165Z,13.03
2019-03-29T07:49:04.166Z,11.30
2019-03-29T07:51:48.836Z,10.27
2019-03-29T07:54:33.240Z,11.33
2019-03-29T07:57:18.221Z,11.70
2019-03-29T08:00:06.039Z,10.47
2019-03-29T08:02:50.780Z,9.93
2019-03-29T08:05:35.602Z,9.77
2019-03-29T08:08:24.676Z,9.57
2019-03-29T08:11:07.175Z,9.87
2019-03-29T08:13:51.735Z,8.70
2019-03-29T08:16:37.054Z,9.40
2019-03-29T08:19:21.774Z,9.33
2019-03-29T08:22:06.439Z,8.33
2019-03-29T08:24:51.399Z,8.57
2019-03-29T08:27:36.261Z,8.63
2019-03-29T08:30:21.001Z,11.07
2019-03-29T08:33:05.389Z,12.47
2019-03-29T08:35:50.269Z,8.60
2019-03-29T08:38:35.255Z,8.40
2019-03-29T08:41:19.716Z,7.53
2019-03-29T08:44:04.305Z,12.10
2019-03-29T08:46:49.226Z,9.87
2019-03-29T08:49:34.022Z,11.40
2019-03-29T08:52:19.061Z,9.10
2019-03-29T08:55:05.315Z,9.43
2019-03-29T08:57:49.795Z,10.33
2019-03-29T09:00:34.459Z,10.17
2019-03-29T09:03:19.166Z,11.03
2019-03-29T09:06:04.338Z,9.30
2019-03-29T09:08:49.390Z,10.23
2019-03-29T09:11:34.298Z,10.00
2019-03-29T09:14:18.776Z,10.05
2019-03-29T09:17:03.345Z,9.65
2019-03-29T09:19:48.134Z,9.65
2019-03-29T09:22:32.725Z,8.75
2019-03-29T09:25:20.771Z,8.85
2019-03-29T09:28:03.951Z,10.53
2019-03-29T09:30:48.901Z,9.18
2019-03-29T09:33:33.505Z,9.78
2019-03-29T09:36:18.305Z,9.25
2019-03-29T09:39:05.197Z,10.70
2019-03-29T09:41:49.847Z,9.88
2019-03-29T09:44:34.843Z,12.53
2019-03-29T09:47:19.529Z,10.18
2019-03-29T09:50:09.943Z,9.20
2019-03-29T09:52:53.065Z,9.70
2019-03-29T09:55:37.900Z,7.97
2019-03-29T09:58:23.021Z,7.83
2019-03-29T10:01:08.073Z,8.40
2019-03-29T10:03:53.111Z,8.68
2019-03-29T10:06:37.785Z,8.50
2019-03-29T10:09:22.230Z,8.48
2019-03-29T10:12:07.064Z,9.00
2019-03-29T10:14:51.867Z,9.18
2019-03-29T10:17:36.826Z,8.93
2019-03-29T10:20:22.028Z,9.98
2019-03-29T10:23:06.980Z,11.50
2019-03-29T10:25:52.051Z,9.48
2019-03-29T10:28:36.616Z,10.53
2019-03-29T10:31:32.035Z,9.33
2019-03-29T10:34:07.895Z,10.23
2019-03-29T10:36:52.701Z,9.73
2019-03-29T10:39:37.590Z,9.53
2019-03-29T10:42:22.510Z,10.35
2019-03-29T10:45:07.622Z,10.32
2019-03-29T10:47:52.516Z,10.30
2019-03-29T10:50:37.008Z,11.28
2019-03-29T10:53:21.458Z,7.85
2019-03-29T10:56:06.195Z,9.18
2019-03-29T10:58:51.020Z,9.98
2019-03-29T11:01:36.298Z,9.95
2019-03-29T11:04:20.818Z,10.30
2019-03-29T11:07:05.442Z,10.38
2019-03-29T11:09:50.018Z,11.80
2019-03-29T11:12:34.921Z,10.23
2019-03-29T11:15:19.848Z,9.53
2019-03-29T11:18:05.329Z,9.90
2019-03-29T11:20:50.026Z,9.95
2019-03-29T11:23:35.018Z,10.98
2019-03-29T11:26:19.679Z,10.60
2019-03-29T11:29:04.281Z,11.12
2019-03-29T11:31:49.381Z,11.75
2019-03-29T11:34:33.829Z,10.30
2019-03-29T11:37:18.450Z,10.13
2019-03-29T11:40:06.225Z,9.75
2019-03-29T11:42:51.296Z,10.13
2019-03-29T11:45:35.920Z,11.78
2019-03-29T11:48:20.838Z,10.45
2019-03-29T11:51:18.568Z,10.13
2019-03-29T11:53:52.363Z,10.00
2019-03-29T11:56:37.295Z,10.75
2019-03-29T11:59:21.726Z,11.35
2019-03-29T12:02:06.573Z,9.48
2019-03-29T12:04:51.441Z,10.03
2019-03-29T12:07:36.059Z,11.35
2019-03-29T12:10:21.107Z,10.90
2019-03-29T12:13:06.747Z,10.20
2019-03-29T12:15:51.575Z,11.63
2019-03-29T12:18:36.066Z,11.38
2019-03-29T12:21:21.282Z,11.50
2019-03-29T12:24:06.124Z,11.90
2019-03-29T12:26:50.698Z,11.00
2019-03-29T12:29:35.654Z,12.58
2019-03-29T12:32:20.655Z,11.35
2019-03-29T12:35:05.957Z,11.53
2019-03-29T12:37:50.536Z,10.65
2019-03-29T12:40:35.813Z,10.75
2019-03-29T12:43:20.715Z,10.65
2019-03-29T12:46:05.675Z,9.58
2019-03-29T12:48:50.661Z,11.30
2019-03-29T12:51:35.764Z,9.30
2019-03-29T12:54:20.815Z,8.40
2019-03-29T12:57:06.835Z,9.45
2019-03-29T12:59:51.904Z,9.75
2019-03-29T13:02:36.958Z,9.13
2019-03-29T13:05:22.004Z,9.68
2019-03-29T13:08:06.726Z,8.48
2019-03-29T13:10:52.054Z,9.95
2019-03-29T13:13:36.905Z,9.40
2019-03-29T13:16:21.704Z,8.63
2019-03-29T13:19:06.408Z,9.30
2019-03-29T13:21:51.025Z,10.32
2019-03-29T13:24:35.831Z,8.38
2019-03-29T13:27:20.784Z,9.88
2019-03-29T13:30:07.367Z,9.63
2019-03-29T13:32:52.004Z,7.90
2019-03-29T13:35:37.130Z,8.73
2019-03-29T13:38:22.245Z,9.10
2019-03-29T13:41:07.392Z,9.58
2019-03-29T13:43:52.294Z,9.78
2019-03-29T13:46:36.926Z,9.73
2019-03-29T13:49:21.675Z,8.98
2019-03-29T13:52:06.741Z,7.50
2019-03-29T13:54:51.796Z,8.55
2019-03-29T13:57:36.477Z,8.93
2019-03-29T14:00:21.335Z,10.40
2019-03-29T14:03:06.118Z,10.43
2019-03-29T14:05:51.029Z,9.98
2019-03-29T14:08:36.294Z,10.38
2019-03-29T14:11:20.812Z,9.80
2019-03-29T14:14:05.893Z,8.85
2019-03-29T14:16:50.576Z,9.90
2019-03-29T14:19:35.392Z,8.50
2019-03-29T14:22:20.069Z,8.88
2019-03-29T14:25:06.769Z,9.63
2019-03-29T14:27:52.016Z,8.78
2019-03-29T14:30:36.893Z,10.65
2019-03-29T14:33:21.465Z,11.43
2019-03-29T14:36:06.198Z,10.72
2019-03-29T14:38:51.160Z,11.05
2019-03-29T14:41:36.120Z,8.73
2019-03-29T14:44:21.234Z,9.20
2019-03-29T14:47:06.254Z,7.60
2019-03-29T14:49:51.186Z,7.30
2019-03-29T14:52:35.927Z,9.25
2019-03-29T14:55:20.482Z,9.83
2019-03-29T14:58:04.969Z,8.78
2019-03-29T15:00:49.725Z,10.82
2019-03-29T15:03:34.755Z,9.75
2019-03-29T15:06:19.287Z,9.65
2019-03-29T15:09:05.226Z,9.15
2019-03-29T15:11:49.908Z,8.58
2019-03-29T15:14:34.700Z,8.50
2019-03-29T15:17:21.501Z,9.43
2019-03-29T15:20:06.590Z,9.40
2019-03-29T15:22:51.551Z,11.65
2019-03-29T15:25:36.788Z,11.30
2019-03-29T15:28:21.793Z,10.58
2019-03-29T15:31:06.901Z,10.55
2019-03-29T15:33:51.987Z,10.05
2019-03-29T15:36:36.997Z,9.23
2019-03-29T15:39:22.158Z,10.40
2019-03-29T15:42:07.305Z,9.65
2019-03-29T15:44:51.728Z,8.68
2019-03-29T15:47:36.285Z,8.73
2019-03-29T15:50:21.273Z,9.50
2019-03-29T15:53:06.150Z,9.40
2019-03-29T15:55:51.331Z,9.93
2019-03-29T15:58:36.055Z,10.43
2019-03-29T16:01:21.004Z,9.78
2019-03-29T16:04:05.894Z,8.33
2019-03-29T16:06:50.640Z,9.10
2019-03-29T16:09:35.654Z,8.18
2019-03-29T16:12:20.465Z,7.12
2019-03-29T16:15:05.587Z,6.75
2019-03-29T16:17:50.422Z,6.53
2019-03-29T16:20:35.761Z,7.75
2019-03-29T16:23:20.791Z,7.03
2019-03-29T16:26:05.879Z,6.78
2019-03-29T16:28:51.018Z,6.60
2019-03-29T16:31:36.206Z,7.08
2019-03-29T16:34:21.183Z,6.15
2019-03-29T16:37:06.238Z,7.15
2019-03-29T16:39:51.295Z,7.05
2019-03-29T16:42:36.583Z,7.55
2019-03-29T16:45:21.648Z,7.80
2019-03-29T16:48:07.045Z,7.85
2019-03-29T16:50:52.401Z,6.75
2019-03-29T16:53:39.730Z,6.78
2019-03-29T16:56:24.046Z,7.22
2019-03-29T16:59:09.304Z,6.67
2019-03-29T17:01:53.851Z,6.40
2019-03-29T17:04:38.559Z,7.22
2019-03-29T17:07:23.639Z,6.83
2019-03-29T17:10:08.577Z,6.75
2019-03-29T17:12:53.300Z,6.62
2019-03-29T17:15:38.396Z,6.10
2019-03-29T17:18:29.152Z,6.35
2019-03-29T17:21:10.227Z,7.42
2019-03-29T17:23:55.362Z,5.75
2019-03-29T17:26:40.368Z,5.87
2019-03-29T17:29:25.442Z,5.72
2019-03-29T17:32:10.610Z,5.55
2019-03-29T17:34:55.634Z,4.42
2019-03-29T17:37:40.288Z,4.42
2019-03-29T17:40:24.988Z,4.10
2019-03-29T17:43:10.299Z,4.10
2019-03-29T17:45:55.354Z,3.55
2019-03-29T17:48:40.520Z,4.50
2019-03-29T17:51:25.599Z,3.77
2019-03-29T17:54:10.623Z,5.28
2019-03-29T17:56:56.057Z,4.47
2019-03-29T17:59:41.031Z,5.10
2019-03-29T18:02:26.269Z,5.92
2019-03-29T18:05:11.368Z,7.60
2019-03-29T18:07:56.518Z,5.22
2019-03-29T18:10:41.578Z,7.47
2019-03-29T18:13:26.629Z,6.90
2019-03-29T18:16:11.723Z,8.15
2019-03-29T18:18:56.864Z,6.33
2019-03-29T18:21:41.879Z,6.03
2019-03-29T18:24:26.871Z,6.00
2019-03-29T18:27:11.715Z,6.60
2019-03-29T18:29:57.251Z,7.42
2019-03-29T18:32:42.075Z,7.20
2019-03-29T18:35:27.080Z,6.47
2019-03-29T18:38:12.229Z,7.20
2019-03-29T18:40:57.626Z,7.67
2019-03-29T18:43:42.190Z,7.20
2019-03-29T18:46:26.974Z,9.40
2019-03-29T18:49:12.056Z,10.43
2019-03-29T18:51:57.424Z,15.97
2019-03-29T18:54:42.291Z,9.77
2019-03-29T18:57:27.403Z,9.90
2019-03-29T19:00:12.693Z,11.63
2019-03-29T19:02:57.768Z,11.23
2019-03-29T19:05:42.879Z,12.03
2019-03-29T19:08:27.881Z,12.40
2019-03-29T19:11:13.159Z,13.20
2019-03-29T19:13:58.224Z,12.40
2019-03-29T19:16:43.313Z,12.70
2019-03-29T19:19:28.534Z,16.87
2019-03-29T19:22:13.388Z,15.43
2019-03-29T19:24:58.340Z,16.90
2019-03-29T19:27:43.080Z,16.23
2019-03-29T19:30:28.193Z,17.20
2019-03-29T19:33:13.473Z,17.40
2019-03-29T19:35:58.489Z,17.93
2019-03-29T19:38:43.500Z,17.83
2019-03-29T19:41:28.282Z,17.00
2019-03-29T19:44:13.926Z,17.00
2019-03-29T19:47:12.495Z,16.00
2019-03-29T19:49:45.841Z,17.67
2019-03-29T19:52:30.709Z,17.60
2019-03-29T19:55:15.766Z,18.87
2019-03-29T19:58:00.506Z,21.53
2019-03-29T20:00:45.799Z,22.37
2019-03-29T20:03:30.848Z,27.23
2019-03-29T20:06:16.079Z,26.87
2019-03-29T20:09:01.369Z,22.83
2019-03-29T20:11:46.303Z,21.03
2019-03-29T20:14:31.502Z,22.60
2019-03-29T20:17:26.944Z,22.53
2019-03-29T20:20:04.719Z,22.63
2019-03-29T20:22:50.764Z,19.40
2019-03-29T20:25:37.934Z,23.47
2019-03-29T20:28:22.879Z,22.50
2019-03-29T20:31:08.248Z,21.10
2019-03-29T20:33:53.070Z,22.00
2019-03-29T20:36:37.734Z,21.93
2019-03-29T20:39:22.901Z,21.83
2019-03-29T20:42:08.187Z,19.70
2019-03-29T20:44:52.944Z,19.97
2019-03-29T20:47:42.405Z,20.33
2019-03-29T20:50:24.976Z,21.60
2019-03-29T20:53:09.862Z,24.20
2019-03-29T20:55:58.129Z,20.23
2019-03-29T20:58:41.777Z,18.77
2019-03-29T21:01:26.765Z,18.50
2019-03-29T21:04:11.999Z,20.00
2019-03-29T21:06:57.053Z,19.87
2019-03-29T21:09:42.153Z,18.90
2019-03-29T21:12:27.279Z,18.13
2019-03-29T21:15:14.202Z,19.37
2019-03-29T21:17:58.867Z,18.93
2019-03-29T21:20:43.662Z,18.60
2019-03-29T21:23:28.778Z,19.10
2019-03-29T21:26:13.574Z,20.20
2019-03-29T21:28:58.373Z,19.80
2019-03-29T21:31:43.496Z,19.80
2019-03-29T21:34:28.543Z,18.17
2019-03-29T21:37:13.526Z,19.07
2019-03-29T21:39:58.649Z,19.30
2019-03-29T21:42:43.726Z,18.23
2019-03-29T21:45:29.358Z,20.50
2019-03-29T21:48:27.946Z,19.30
2019-03-29T21:51:00.444Z,21.20
2019-03-29T21:53:45.350Z,19.77
2019-03-29T21:56:30.503Z,18.13
2019-03-29T21:59:15.431Z,17.77
2019-03-29T22:02:00.697Z,17.70
2019-03-29T22:04:45.752Z,19.10
2019-03-29T22:07:30.686Z,17.23
2019-03-29T22:10:15.415Z,15.43
2019-03-29T22:13:00.502Z,18.63
2019-03-29T22:15:45.469Z,18.07
2019-03-29T22:18:37.807Z,18.63
2019-03-29T22:21:17.031Z,17.60
2019-03-29T22:24:01.618Z,17.77
2019-03-29T22:26:46.725Z,16.87
2019-03-29T22:29:31.920Z,16.33
2019-03-29T22:32:17.031Z,16.97
2019-03-29T22:35:04.807Z,17.27
2019-03-29T22:37:49.615Z,15.87
2019-03-29T22:40:34.530Z,18.03
2019-03-29T22:43:19.458Z,16.40
2019-03-29T22:46:04.643Z,16.07
2019-03-29T22:48:52.997Z,18.23
2019-03-29T22:51:35.764Z,15.83
2019-03-29T22:54:20.757Z,16.20
2019-03-29T22:57:05.314Z,15.27
2019-03-29T22:59:49.926Z,15.53
2019-03-29T23:02:34.637Z,13.03
2019-03-29T23:05:19.633Z,16.47
2019-03-29T23:08:04.882Z,13.67
2019-03-29T23:10:49.962Z,15.33
2019-03-29T23:13:34.859Z,16.60
2019-03-29T23:16:19.845Z,15.67
2019-03-29T23:19:06.913Z,14.87
2019-03-29T23:21:51.085Z,14.77
2019-03-29T23:24:36.286Z,15.77
2019-03-29T23:27:21.168Z,15.40
2019-03-29T23:30:06.793Z,15.47
2019-03-29T23:32:52.111Z,15.67
2019-03-29T23:35:37.024Z,15.67
2019-03-29T23:38:21.804Z,14.70
2019-03-29T23:41:06.854Z,15.90
2019-03-29T23:43:51.369Z,13.47
2019-03-29T23:46:36.419Z,14.47
2019-03-29T23:49:21.651Z,15.20
2019-03-29T23:52:06.629Z,14.70
2019-03-29T23:54:51.139Z,13.60
2019-03-29T23:57:36.008Z,13.57
